Shenandoah, VA

5:45 PM EDT on September 02, 2015 (GMT -0400)
Shenandoah Speedway | | Change Station
CLOSE
Current Station
Personal Weather Station
Location: Shenandoah, VA
Elevation: 954 ft
Nearby Weather Stations

Elev 954 ft 38.51 °N, 78.62 °W | Updated 20 seconds ago

Partly Cloudy
Partly Cloudy
73.0 °F
Feels Like 73 °F
N
0.0
Wind Variable Wind from NW
Gusts 0.0 mph

Today
High -- | Low -- °F
--% Chance of Precip.
Yesterday
High -- | Low -- °F
Precip. -- in
6:44 AM 7:43 PM
Waning Gibbous, 77% visible
Pressure 30.04 in
Visibility 7.0 miles
Clouds Scattered Clouds 6500 ft
Scattered Clouds 7500 ft
Overcast 11000 ft
Heat Index 73 °F
Dew Point 66 °F
Humidity 79%
Rainfall 0.00 in
Snow Depth Not available.
UV 1 out of 12
Pollen 9.40 out of 12
Air Quality Not available.
Flu Activity Not available.
METAR KLUA 022135Z AUTO 00000KT 7SM VCTSRA SCT065 SCT075 OVC110 19/18 A3004 RMK AO2 LTG DSNT E THRU S P0002
Pressure 30.04 in
Visibility 7.0 miles
Clouds Scattered Clouds 6500 ft
Scattered Clouds 7500 ft
Overcast 11000 ft
Heat Index 73 °F
Dew Point 66 °F
Humidity 79%
Rainfall 0.00 in
Snow Depth Not available.
UV 1 out of 12
Pollen 9.40 out of 12
Air Quality Not available.
Flu Activity Not available.
METAR KLUA 022135Z AUTO 00000KT 7SM VCTSRA SCT065 SCT075 OVC110 19/18 A3004 RMK AO2 LTG DSNT E THRU S P0002

10-Day Weather Forecast

×

Almanac

Astronomy

Sep. 02, 2015 Rise Set
Actual Time
Civil Twilight
Nautical Twilight
Astronomical Twilight
Moon
Length of Visible Light
Length of Day
Tomorrow will be .
, % of the Moon is Illuminated

Today's Extremes

State Highs State Lows

Community

WunderPhotos

Upload Photos

1,851,818 photos uploaded!

WunderBlogs® & News

Nearby

Air Quality

  Air Quality AQ Index Pollutant
Not available.

Snow Depth

Station Depth Elevation

Earthquake Activity

City Distance Mag. Time & Date
Minimum magnitude displayed is 2.5.

Coastal Water Temperatures

Place Temperature

Stations

Nearby Weather Stations

Station Location Temp. Windchill Dew Point Humidity Wind Precip. Elev Updated Type